Time;durP1;ratioP1;P1;durP2;ratioP2;P2;SDS_P1;SDS_P2;PMS_P1;PMS_P2;Temp;Humidity;BMP_temperature;BMP_pressure;BME280_temperature;BME280_humidity;BME280_pressure;Samples;Min_cycle;Max_cycle;Signal;HPM_P1;HPM_P2
2022/05/15 00:00:51;;;;;;;7.03;5.43;;;20.50;55.80;;;;;;4994393;28;20257;-64
2022/05/15 00:03:23;;;;;;;8.13;5.50;;;20.40;56.10;;;;;;4999435;28;20428;-64
2022/05/15 00:06:00;;;;;;;7.37;5.40;;;20.30;56.00;;;;;;4996685;28;20275;-64
2022/05/15 00:08:28;;;;;;;5.23;4.73;;;20.30;55.90;;;;;;4994195;28;20444;-64
2022/05/15 00:10:55;;;;;;;6.90;5.60;;;20.10;56.30;;;;;;4996697;28;20528;-64
2022/05/15 00:13:23;;;;;;;6.23;5.23;;;20.00;56.50;;;;;;4996136;28;20456;-64
2022/05/15 00:15:49;;;;;;;7.27;5.23;;;20.00;56.60;;;;;;4997779;28;20437;-64
2022/05/15 00:18:19;;;;;;;5.93;4.60;;;19.90;56.60;;;;;;4999631;28;20518;-64
2022/05/15 00:20:45;;;;;;;6.47;5.07;;;19.80;56.90;;;;;;4992612;28;20522;-64
2022/05/15 00:23:11;;;;;;;11.10;5.00;;;19.70;57.10;;;;;;4997381;28;20448;-64
2022/05/15 00:25:38;;;;;;;5.17;4.67;;;19.60;57.20;;;;;;4999210;28;20308;-65
2022/05/15 00:28:05;;;;;;;6.50;4.10;;;19.50;57.30;;;;;;4993306;28;20669;-65
2022/05/15 00:30:31;;;;;;;6.70;4.90;;;19.50;57.30;;;;;;4996705;28;20817;-64
2022/05/15 00:32:58;;;;;;;5.10;4.60;;;19.50;57.40;;;;;;4995164;28;20923;-65
2022/05/15 00:35:24;;;;;;;8.60;4.60;;;19.30;57.60;;;;;;4993910;28;20435;-64
2022/05/15 00:37:49;;;;;;;5.47;4.70;;;19.30;57.60;;;;;;4994860;28;20559;-64
2022/05/15 00:40:18;;;;;;;6.43;4.20;;;19.30;57.80;;;;;;4995264;28;20428;-65
2022/05/15 00:42:44;;;;;;;7.77;4.30;;;19.30;58.00;;;;;;4991363;28;20556;-65
2022/05/15 00:45:11;;;;;;;8.97;4.17;;;19.30;58.10;;;;;;4993266;28;20428;-64
2022/05/15 00:47:37;;;;;;;6.43;3.90;;;19.20;58.50;;;;;;4999481;28;20506;-65
2022/05/15 00:50:06;;;;;;;5.50;4.20;;;19.20;58.90;;;;;;4994036;28;20507;-65
2022/05/15 00:52:36;;;;;;;4.77;3.97;;;19.10;58.20;;;;;;4995270;28;20216;-65
2022/05/15 00:55:21;;;;;;;6.00;4.30;;;19.10;58.40;;;;;;4994704;28;20451;-65
2022/05/15 00:57:51;;;;;;;4.23;3.73;;;19.00;58.50;;;;;;4994015;28;20444;-65
2022/05/15 01:00:26;;;;;;;8.93;3.97;;;19.00;58.70;;;;;;4994271;28;20458;-64
2022/05/15 01:03:00;;;;;;;6.33;4.10;;;19.00;58.50;;;;;;4992324;28;20525;-64
2022/05/15 01:05:26;;;;;;;5.50;5.00;;;19.00;58.50;;;;;;5013627;28;20957;-65
2022/05/15 01:07:52;;;;;;;5.27;3.90;;;18.90;58.80;;;;;;4993213;28;20850;-65
2022/05/15 01:10:18;;;;;;;5.73;4.30;;;18.80;59.10;;;;;;4992608;28;20447;-64
2022/05/15 01:12:44;;;;;;;6.00;4.90;;;18.80;59.40;;;;;;4999830;28;20307;-65
2022/05/15 01:15:18;;;;;;;5.40;4.83;;;18.80;59.40;;;;;;5001734;28;20590;-65
2022/05/15 01:17:43;;;;;;;5.37;4.57;;;18.80;59.70;;;;;;4999459;28;20464;-65
2022/05/15 01:20:13;;;;;;;5.53;5.00;;;18.80;59.90;;;;;;5001107;28;20911;-64
2022/05/15 01:22:39;;;;;;;6.67;4.57;;;18.80;60.30;;;;;;5001781;28;20185;-64
2022/05/15 01:25:14;;;;;;;4.90;4.30;;;18.80;60.50;;;;;;4999240;28;20487;-64
2022/05/15 01:27:46;;;;;;;4.90;4.33;;;18.80;60.70;;;;;;5001325;28;21158;-64
2022/05/15 01:30:12;;;;;;;5.47;4.80;;;18.80;60.40;;;;;;4996665;28;20423;-64
2022/05/15 01:32:37;;;;;;;10.60;4.60;;;18.70;60.70;;;;;;4998068;28;20518;-64
2022/05/15 01:35:03;;;;;;;6.47;4.30;;;18.70;61.10;;;;;;5000334;28;20455;-64
2022/05/15 01:37:29;;;;;;;9.47;4.87;;;18.70;61.10;;;;;;4998478;28;20706;-64
2022/05/15 01:39:55;;;;;;;6.20;5.60;;;18.70;61.20;;;;;;4997335;28;20523;-64
2022/05/15 01:42:20;;;;;;;6.33;4.10;;;18.70;61.20;;;;;;4998269;28;20220;-64
2022/05/15 01:44:46;;;;;;;5.80;5.30;;;18.70;61.20;;;;;;4995584;28;20193;-64
2022/05/15 01:47:11;;;;;;;6.27;5.00;;;18.70;61.20;;;;;;5019400;28;20188;-64
2022/05/15 01:49:38;;;;;;;5.77;4.70;;;18.70;61.40;;;;;;4999445;28;20656;-64
2022/05/15 01:52:04;;;;;;;6.40;5.30;;;18.70;61.80;;;;;;4999094;28;20320;-64
2022/05/15 01:54:29;;;;;;;7.53;4.63;;;18.70;61.80;;;;;;4998519;28;20464;-64
2022/05/15 01:56:55;;;;;;;6.07;4.50;;;18.60;61.90;;;;;;5000727;28;20460;-64
2022/05/15 01:59:21;;;;;;;5.60;4.70;;;18.60;62.20;;;;;;4999057;28;20296;-64
2022/05/15 02:01:47;;;;;;;5.07;4.57;;;18.60;62.30;;;;;;4995733;28;20786;-64
2022/05/15 02:04:13;;;;;;;7.97;4.83;;;18.50;62.50;;;;;;5000695;28;20231;-64
2022/05/15 02:06:39;;;;;;;11.73;5.70;;;18.50;62.50;;;;;;4999524;28;20182;-64
2022/05/15 02:09:07;;;;;;;5.13;4.40;;;18.40;62.90;;;;;;4998452;28;20510;-64
2022/05/15 02:11:34;;;;;;;5.00;4.50;;;18.40;63.20;;;;;;4998515;28;20216;-64
2022/05/15 02:14:00;;;;;;;5.90;4.70;;;18.30;63.50;;;;;;4998219;28;20441;-64
2022/05/15 02:16:26;;;;;;;6.23;4.37;;;18.30;63.10;;;;;;5000487;28;20424;-64
2022/05/15 02:18:52;;;;;;;4.80;3.60;;;18.30;62.90;;;;;;4995290;28;20482;-64
2022/05/15 02:21:18;;;;;;;6.07;5.47;;;18.30;62.90;;;;;;4998107;28;20193;-64
2022/05/15 02:23:43;;;;;;;5.73;4.37;;;18.20;62.80;;;;;;4997914;28;20776;-64
2022/05/15 02:26:09;;;;;;;4.90;4.40;;;18.20;62.70;;;;;;4998457;28;20444;-64
2022/05/15 02:28:36;;;;;;;6.47;4.60;;;18.20;63.00;;;;;;4994988;28;20239;-64
2022/05/15 02:31:01;;;;;;;5.50;4.73;;;18.20;63.30;;;;;;4995213;28;20357;-64
2022/05/15 02:33:27;;;;;;;8.70;4.70;;;18.20;63.20;;;;;;4999600;28;20531;-64
2022/05/15 02:35:52;;;;;;;8.13;4.93;;;18.10;63.30;;;;;;4996850;28;20178;-64
2022/05/15 02:38:18;;;;;;;5.97;4.70;;;18.10;63.60;;;;;;4998232;28;20201;-64
2022/05/15 02:40:44;;;;;;;4.50;3.80;;;18.00;63.80;;;;;;4997371;28;20308;-64
2022/05/15 02:43:09;;;;;;;6.73;4.40;;;18.00;64.00;;;;;;4996566;28;20210;-64
2022/05/15 02:45:35;;;;;;;9.57;4.60;;;18.00;63.90;;;;;;4999473;28;20467;-64
2022/05/15 02:48:01;;;;;;;5.03;4.53;;;18.00;64.20;;;;;;4997933;28;20293;-64
2022/05/15 02:53:11;;;;;;;5.30;4.40;;;17.80;64.90;;;;;;4998833;28;20639;-64
2022/05/15 02:55:37;;;;;;;9.53;4.20;;;17.80;64.90;;;;;;4999945;28;20436;-64
2022/05/15 02:58:04;;;;;;;6.00;4.40;;;17.70;65.20;;;;;;4996189;28;20561;-64
2022/05/15 03:00:30;;;;;;;6.63;4.40;;;17.70;65.10;;;;;;4996832;28;20181;-64
2022/05/15 03:02:56;;;;;;;6.23;4.60;;;17.70;65.10;;;;;;4999299;28;20432;-64
2022/05/15 03:05:22;;;;;;;6.37;4.03;;;17.60;65.00;;;;;;4998713;28;20420;-64
2022/05/15 03:07:49;;;;;;;6.30;4.43;;;17.60;65.10;;;;;;4997340;28;20213;-64
2022/05/15 03:10:16;;;;;;;4.17;3.77;;;17.50;65.60;;;;;;4997054;28;20200;-64
2022/05/15 03:12:42;;;;;;;8.93;5.17;;;17.60;65.80;;;;;;4997185;28;20486;-64
2022/05/15 03:15:12;;;;;;;4.90;4.03;;;17.60;66.00;;;;;;4994682;28;20447;-64
2022/05/15 03:17:37;;;;;;;6.40;4.70;;;17.50;66.10;;;;;;4998106;28;20217;-64
2022/05/15 03:20:05;;;;;;;5.00;4.23;;;17.60;66.40;;;;;;4999238;28;20529;-64
2022/05/15 03:22:31;;;;;;;8.10;4.37;;;17.50;66.50;;;;;;4997444;28;20276;-64
2022/05/15 03:24:56;;;;;;;7.40;4.17;;;17.50;66.60;;;;;;4998088;28;20440;-64
2022/05/15 03:27:22;;;;;;;6.80;4.33;;;17.40;66.80;;;;;;5000467;28;20424;-64
2022/05/15 03:29:47;;;;;;;6.07;4.80;;;17.40;67.10;;;;;;5009457;28;20186;-64
2022/05/15 03:32:13;;;;;;;6.67;4.17;;;17.40;67.20;;;;;;4998133;28;20292;-64
2022/05/15 03:34:38;;;;;;;6.20;4.63;;;17.40;67.30;;;;;;4997060;28;20186;-64
2022/05/15 03:37:04;;;;;;;5.27;4.60;;;17.40;67.60;;;;;;4995338;28;20240;-64
2022/05/15 03:39:30;;;;;;;5.30;4.60;;;17.30;68.10;;;;;;4999620;28;20185;-64
2022/05/15 03:41:56;;;;;;;6.67;4.80;;;17.20;68.30;;;;;;4997371;28;20189;-64
2022/05/15 03:44:22;;;;;;;9.93;5.40;;;17.20;69.20;;;;;;4995648;28;20196;-64
2022/05/15 03:46:48;;;;;;;9.27;4.37;;;17.10;69.70;;;;;;4993543;28;20576;-65
2022/05/15 03:49:14;;;;;;;7.40;5.17;;;17.10;70.20;;;;;;4996555;28;20908;-65
2022/05/15 03:51:41;;;;;;;7.53;5.87;;;17.10;70.70;;;;;;4990867;28;20615;-64
2022/05/15 03:54:08;;;;;;;5.30;4.33;;;17.00;71.60;;;;;;4995653;28;20432;-64
2022/05/15 03:57:06;;;;;;;5.70;4.23;;;17.00;72.20;;;;;;4998649;28;21235;-64
2022/05/15 03:59:32;;;;;;;7.97;5.50;;;17.00;73.40;;;;;;4993363;28;20620;-65
2022/05/15 04:01:59;;;;;;;6.43;4.70;;;17.00;72.70;;;;;;4990995;28;20428;-64
2022/05/15 04:04:25;;;;;;;6.43;5.63;;;17.00;72.80;;;;;;4995825;28;20442;-65
2022/05/15 04:06:50;;;;;;;5.37;4.87;;;17.00;72.90;;;;;;4997308;28;20558;-65
2022/05/15 04:09:16;;;;;;;6.73;5.10;;;17.00;73.30;;;;;;4999658;28;20450;-65
2022/05/15 04:11:42;;;;;;;6.60;4.90;;;16.90;73.50;;;;;;4994025;28;20686;-64
2022/05/15 04:14:07;;;;;;;7.03;4.80;;;16.90;73.80;;;;;;4996343;28;20269;-65
2022/05/15 04:16:34;;;;;;;10.47;5.10;;;16.80;74.00;;;;;;5000217;28;20437;-65
2022/05/15 04:19:01;;;;;;;6.13;4.60;;;16.80;74.30;;;;;;4997204;28;20665;-65
2022/05/15 04:21:27;;;;;;;7.30;4.67;;;16.80;74.50;;;;;;4994499;28;20435;-65
2022/05/15 04:23:53;;;;;;;6.20;4.60;;;16.80;74.40;;;;;;4998655;28;20493;-65
2022/05/15 04:26:19;;;;;;;7.70;4.60;;;16.80;74.40;;;;;;4996416;28;20434;-65
2022/05/15 04:28:44;;;;;;;6.77;4.60;;;16.80;74.70;;;;;;4997182;28;20213;-65
2022/05/15 04:31:10;;;;;;;5.10;4.50;;;16.80;74.80;;;;;;4994670;28;20228;-65
2022/05/15 04:33:36;;;;;;;5.77;4.40;;;16.90;74.80;;;;;;4995978;28;20196;-65
2022/05/15 04:36:02;;;;;;;5.83;4.33;;;16.90;74.40;;;;;;4998701;28;20389;-65
2022/05/15 04:38:28;;;;;;;8.43;4.10;;;16.90;74.70;;;;;;4994363;28;20336;-65
2022/05/15 04:40:54;;;;;;;5.00;4.27;;;16.90;74.90;;;;;;4996291;28;20472;-65
2022/05/15 04:43:20;;;;;;;7.53;4.90;;;16.90;74.70;;;;;;4998838;28;20881;-65
2022/05/15 04:45:46;;;;;;;4.67;4.07;;;16.90;74.70;;;;;;4997981;28;20196;-65
2022/05/15 04:48:12;;;;;;;7.37;4.33;;;16.90;74.60;;;;;;4998506;28;20444;-65
2022/05/15 04:50:38;;;;;;;6.20;3.90;;;16.90;75.00;;;;;;5001523;28;20996;-65
2022/05/15 04:53:07;;;;;;;6.33;4.50;;;16.90;75.30;;;;;;4999225;28;20440;-65
2022/05/15 04:55:33;;;;;;;9.93;4.37;;;16.90;75.70;;;;;;4999872;28;20428;-65
2022/05/15 04:57:59;;;;;;;5.03;4.23;;;16.90;75.50;;;;;;5001782;28;20786;-64
2022/05/15 05:00:25;;;;;;;7.10;4.27;;;16.90;75.50;;;;;;5001519;28;20466;-65
2022/05/15 05:02:50;;;;;;;5.73;4.33;;;16.90;75.60;;;;;;4999376;28;20186;-65
2022/05/15 05:05:16;;;;;;;5.07;4.53;;;16.90;75.80;;;;;;5001817;28;20494;-65
2022/05/15 05:07:42;;;;;;;6.43;4.47;;;16.90;75.60;;;;;;4996138;28;20213;-64
2022/05/15 05:10:10;;;;;;;5.40;4.63;;;16.90;75.70;;;;;;4996825;28;20197;-65
2022/05/15 05:12:36;;;;;;;4.93;4.33;;;16.90;75.60;;;;;;5000950;28;20283;-65
2022/05/15 05:15:03;;;;;;;5.30;4.10;;;17.00;76.00;;;;;;4998113;28;20421;-65
2022/05/15 05:17:29;;;;;;;6.37;5.10;;;17.00;75.90;;;;;;5001976;28;20217;-65
2022/05/15 05:19:54;;;;;;;6.53;5.20;;;17.00;75.90;;;;;;4999349;28;20484;-65
2022/05/15 05:22:20;;;;;;;7.83;4.43;;;17.10;75.80;;;;;;5002135;28;20190;-65
2022/05/15 05:24:45;;;;;;;7.37;5.13;;;17.10;75.90;;;;;;5000894;28;20197;-64
2022/05/15 05:27:11;;;;;;;7.20;4.97;;;17.10;75.90;;;;;;4998019;28;20247;-64
2022/05/15 05:29:37;;;;;;;5.20;4.47;;;17.10;76.30;;;;;;4998983;28;20255;-65
2022/05/15 05:32:03;;;;;;;5.93;4.23;;;17.20;76.20;;;;;;5001100;28;20221;-64
2022/05/15 05:34:29;;;;;;;6.37;5.30;;;17.20;76.60;;;;;;4998039;28;20209;-64
2022/05/15 05:36:54;;;;;;;6.23;4.23;;;17.20;76.60;;;;;;4998946;28;21145;-64
2022/05/15 05:39:21;;;;;;;6.13;5.37;;;17.30;76.40;;;;;;4998815;28;20552;-64
2022/05/15 05:41:47;;;;;;;4.73;4.23;;;17.40;76.30;;;;;;4999655;28;20209;-64
2022/05/15 05:44:13;;;;;;;6.33;4.23;;;17.40;76.50;;;;;;4996119;28;20825;-64
2022/05/15 05:46:39;;;;;;;5.30;4.50;;;17.50;76.60;;;;;;5001051;28;20436;-65
2022/05/15 05:49:04;;;;;;;7.17;5.03;;;17.50;76.60;;;;;;5015811;28;20212;-65
2022/05/15 05:51:30;;;;;;;7.20;4.43;;;17.50;76.80;;;;;;4999311;28;20942;-64
2022/05/15 05:53:55;;;;;;;4.70;4.20;;;17.60;76.90;;;;;;5000513;28;20177;-65
2022/05/15 05:56:21;;;;;;;5.60;4.00;;;17.60;76.90;;;;;;4995566;28;20228;-64
2022/05/15 05:58:47;;;;;;;4.40;4.00;;;17.70;77.30;;;;;;4996191;28;20304;-65
2022/05/15 06:01:13;;;;;;;5.47;4.83;;;17.70;77.70;;;;;;4999315;28;20560;-65
2022/05/15 06:06:23;;;;;;;6.83;4.40;;;17.70;78.10;;;;;;4999479;28;20423;-64
2022/05/15 06:08:49;;;;;;;9.53;4.50;;;17.80;78.80;;;;;;5000607;28;20471;-65
2022/05/15 06:11:14;;;;;;;5.47;4.37;;;17.90;78.00;;;;;;4998284;28;20205;-65
2022/05/15 06:13:40;;;;;;;5.53;4.80;;;18.00;77.50;;;;;;4997177;28;20273;-65
2022/05/15 06:16:07;;;;;;;5.87;4.53;;;18.10;77.40;;;;;;4999411;28;20170;-65
2022/05/15 06:18:33;;;;;;;14.17;6.37;;;18.10;77.30;;;;;;4997837;28;20323;-64
2022/05/15 06:20:58;;;;;;;5.30;4.63;;;18.20;77.50;;;;;;5000934;28;20515;-65
2022/05/15 06:23:24;;;;;;;5.77;4.60;;;18.20;77.70;;;;;;4999927;28;20671;-65
2022/05/15 06:25:50;;;;;;;6.00;4.53;;;18.20;77.70;;;;;;4997133;28;20233;-65
2022/05/15 06:28:16;;;;;;;9.53;4.43;;;18.30;78.00;;;;;;4997898;28;20205;-65
2022/05/15 06:30:41;;;;;;;6.50;4.37;;;18.40;78.10;;;;;;4997713;28;20221;-65
2022/05/15 06:33:07;;;;;;;5.80;4.43;;;18.50;77.80;;;;;;4994288;28;20204;-65
2022/05/15 06:35:34;;;;;;;6.53;4.93;;;18.60;77.70;;;;;;4996546;28;20177;-65
2022/05/15 06:38:04;;;;;;;5.10;4.50;;;18.60;76.60;;;;;;4995718;28;20798;-65
2022/05/15 06:40:30;;;;;;;6.03;4.00;;;18.80;76.70;;;;;;4997921;28;20479;-65
2022/05/15 06:42:57;;;;;;;5.20;4.20;;;18.80;77.00;;;;;;4996194;28;20522;-65
2022/05/15 06:45:23;;;;;;;5.27;4.70;;;18.80;77.00;;;;;;4997799;28;20443;-65
2022/05/15 06:47:49;;;;;;;6.50;4.43;;;18.90;77.10;;;;;;4998595;28;20471;-65
2022/05/15 06:50:15;;;;;;;5.37;4.20;;;18.90;76.20;;;;;;5000155;28;20428;-65
2022/05/15 06:52:41;;;;;;;5.97;4.47;;;19.00;76.10;;;;;;4997689;28;20209;-65
2022/05/15 06:55:14;;;;;;;5.70;4.00;;;19.00;75.60;;;;;;4997610;28;20937;-65
2022/05/15 06:57:41;;;;;;;7.13;4.43;;;19.20;75.00;;;;;;4999328;28;20237;-65
2022/05/15 07:00:15;;;;;;;7.70;4.50;;;19.30;74.90;;;;;;4996737;28;20448;-64
2022/05/15 07:02:41;;;;;;;4.50;4.10;;;19.40;75.00;;;;;;5010029;28;20571;-65
2022/05/15 07:05:09;;;;;;;4.57;3.90;;;19.40;74.40;;;;;;4999379;28;20444;-65
2022/05/15 07:07:35;;;;;;;4.83;4.30;;;19.60;74.60;;;;;;4998820;28;20944;-65
2022/05/15 07:10:00;;;;;;;4.70;4.20;;;19.70;74.00;;;;;;4998737;28;20511;-65
2022/05/15 07:12:26;;;;;;;4.93;4.53;;;19.80;73.80;;;;;;4994200;28;20295;-64
2022/05/15 07:14:52;;;;;;;6.20;4.20;;;19.90;74.00;;;;;;4995009;28;20269;-65
2022/05/15 07:17:17;;;;;;;6.93;4.77;;;20.00;73.80;;;;;;4998363;28;20600;-67
2022/05/15 07:19:43;;;;;;;4.53;3.70;;;20.00;74.10;;;;;;4996267;28;20189;-64
2022/05/15 07:22:12;;;;;;;5.77;4.23;;;20.10;74.40;;;;;;4997011;28;20291;-64
2022/05/15 07:24:39;;;;;;;6.33;4.40;;;20.20;74.20;;;;;;4996358;28;20196;-64
2022/05/15 07:27:09;;;;;;;4.47;3.83;;;20.30;73.80;;;;;;4996554;28;20431;-64
2022/05/15 07:29:36;;;;;;;5.87;4.43;;;20.30;73.70;;;;;;4994934;28;20455;-64
2022/05/15 07:32:06;;;;;;;4.20;3.70;;;20.40;73.80;;;;;;5000214;28;20889;-64
2022/05/15 07:34:33;;;;;;;7.00;4.37;;;20.50;73.60;;;;;;4996005;28;20796;-64
2022/05/15 07:36:59;;;;;;;6.03;4.30;;;20.60;73.40;;;;;;4999178;28;20435;-65
2022/05/15 07:39:24;;;;;;;6.40;4.67;;;20.60;74.10;;;;;;4996468;28;20451;-64
2022/05/15 07:41:51;;;;;;;16.37;12.47;;;20.70;73.80;;;;;;4995732;28;20498;-65
2022/05/15 07:44:18;;;;;;;12.57;9.40;;;20.70;73.90;;;;;;4997177;28;20424;-64
2022/05/15 07:46:44;;;;;;;10.63;8.90;;;20.80;74.00;;;;;;4999254;28;20830;-65
2022/05/15 07:49:10;;;;;;;10.57;8.43;;;20.80;73.40;;;;;;4992949;28;20522;-65
2022/05/15 07:51:38;;;;;;;10.70;9.07;;;20.90;73.20;;;;;;4996447;28;20456;-65
2022/05/15 07:54:03;;;;;;;4.70;4.23;;;21.00;72.60;;;;;;4997076;28;20460;-65
2022/05/15 07:56:29;;;;;;;7.20;5.70;;;21.10;72.70;;;;;;4995870;28;20877;-65
2022/05/15 07:58:55;;;;;;;8.87;4.67;;;21.10;72.20;;;;;;4995467;28;20228;-64
2022/05/15 08:01:20;;;;;;;9.37;7.23;;;21.30;71.80;;;;;;4994630;28;20199;-64
2022/05/15 08:03:46;;;;;;;9.13;7.07;;;21.30;71.90;;;;;;4995609;28;20397;-64
2022/05/15 08:09:02;;;;;;;4.80;4.30;;;21.40;71.10;;;;;;4994287;28;20216;-65
2022/05/15 08:11:28;;;;;;;5.43;4.30;;;21.40;71.00;;;;;;4995319;28;20464;-64
2022/05/15 08:14:00;;;;;;;3.63;3.27;;;21.50;71.50;;;;;;4998991;28;20439;-65
2022/05/15 08:16:27;;;;;;;8.50;6.30;;;21.60;71.90;;;;;;4994656;28;20425;-64
2022/05/15 08:24:21;;;;;;;3.90;3.13;;;21.90;70.10;;;;;;4993365;28;20418;-64
2022/05/15 08:26:47;;;;;;;5.23;3.83;;;22.00;69.40;;;;;;5001793;28;20654;-64
2022/05/15 08:29:13;;;;;;;4.13;3.70;;;22.20;69.00;;;;;;4998631;28;20493;-64
2022/05/15 08:31:39;;;;;;;6.77;3.20;;;22.30;68.80;;;;;;4993091;28;20305;-65
2022/05/15 08:34:06;;;;;;;5.83;3.10;;;22.40;67.40;;;;;;4997944;28;20239;-65
2022/05/15 08:36:32;;;;;;;5.80;4.67;;;22.50;65.70;;;;;;4994472;28;20452;-65
2022/05/15 08:38:58;;;;;;;5.67;3.00;;;22.60;65.80;;;;;;4995636;28;20811;-64
2022/05/15 08:41:30;;;;;;;5.10;3.63;;;22.70;64.50;;;;;;4996653;28;20866;-65
2022/05/15 08:43:58;;;;;;;5.03;3.23;;;22.80;64.30;;;;;;4994088;28;20456;-65
2022/05/15 08:46:48;;;;;;;4.80;2.87;;;23.00;62.80;;;;;;4994371;28;20425;-65
2022/05/15 08:49:31;;;;;;;10.17;5.90;;;23.10;62.20;;;;;;4999416;28;20458;-65
2022/05/15 08:52:02;;;;;;;3.70;2.70;;;23.20;61.20;;;;;;4994994;28;21076;-64
2022/05/15 08:54:28;;;;;;;6.33;3.40;;;23.30;60.80;;;;;;4997244;28;20432;-64
2022/05/15 08:56:55;;;;;;;4.70;3.23;;;23.40;60.50;;;;;;4995934;28;20435;-64
2022/05/15 08:59:25;;;;;;;4.97;3.23;;;23.50;61.10;;;;;;4997087;28;20448;-64
2022/05/15 09:01:53;;;;;;;5.30;3.10;;;23.60;58.40;;;;;;4995558;28;20570;-65
2022/05/15 09:04:19;;;;;;;4.60;2.80;;;23.70;57.80;;;;;;4994616;28;20437;-65
2022/05/15 09:07:19;;;;;;;3.43;2.73;;;23.80;57.40;;;;;;4994236;28;20440;-65
2022/05/15 09:09:57;;;;;;;10.00;2.60;;;23.80;58.20;;;;;;4995958;28;20197;-65
2022/05/15 09:12:25;;;;;;;4.70;3.60;;;23.80;57.30;;;;;;4991039;28;20452;-64
2022/05/15 09:14:59;;;;;;;3.60;3.27;;;23.80;57.60;;;;;;4993199;28;20437;-65
2022/05/15 09:17:47;;;;;;;6.47;4.07;;;23.90;57.10;;;;;;4998409;28;20447;-64
2022/05/15 09:20:18;;;;;;;4.70;3.87;;;23.90;57.60;;;;;;4992899;28;20939;-64
2022/05/15 09:23:08;;;;;;;9.33;3.97;;;24.00;57.80;;;;;;4992560;28;20436;-64
2022/05/15 09:25:37;;;;;;;2.70;2.43;;;24.00;57.90;;;;;;4996200;28;20878;-64
2022/05/15 09:28:12;;;;;;;5.70;3.03;;;24.10;58.00;;;;;;4995953;28;20452;-64
2022/05/15 09:30:50;;;;;;;6.43;2.90;;;24.20;58.10;;;;;;5008804;28;20520;-64
2022/05/15 09:33:36;;;;;;;6.70;2.90;;;24.20;58.60;;;;;;4994345;28;20461;-64
2022/05/15 09:36:27;;;;;;;3.73;2.90;;;24.40;58.60;;;;;;4997456;28;20447;-64
2022/05/15 09:39:25;;;;;;;5.10;3.30;;;24.50;57.80;;;;;;5009777;28;20518;-64
2022/05/15 09:44:42;;;;;;;4.97;3.00;;;24.60;57.40;;;;;;5000920;28;20539;-64
2022/05/15 09:47:43;;;;;;;7.03;4.70;;;24.70;56.90;;;;;;4996873;28;20516;-64
2022/05/15 09:50:30;;;;;;;6.83;3.87;;;24.70;57.50;;;;;;4989479;28;20228;-64
2022/05/15 09:52:57;;;;;;;3.73;3.23;;;24.80;56.90;;;;;;5000639;28;20825;-64
2022/05/15 09:55:24;;;;;;;8.00;4.00;;;24.80;57.50;;;;;;4998854;28;21084;-64
2022/05/15 09:58:03;;;;;;;5.90;3.50;;;24.90;57.00;;;;;;4999531;28;20535;-64
2022/05/15 10:00:33;;;;;;;4.03;2.80;;;24.90;56.70;;;;;;5001950;28;20945;-64
2022/05/15 10:03:04;;;;;;;3.80;3.40;;;24.90;57.00;;;;;;5001025;28;20432;-64
2022/05/15 10:05:32;;;;;;;4.40;3.53;;;25.00;56.50;;;;;;4996911;28;20466;-64
2022/05/15 10:08:04;;;;;;;4.33;2.67;;;25.10;56.50;;;;;;4999464;28;20809;-64
2022/05/15 10:10:42;;;;;;;3.40;2.73;;;25.10;56.20;;;;;;4997508;28;20522;-64
2022/05/15 10:13:29;;;;;;;5.63;3.27;;;25.20;56.80;;;;;;4999011;28;21063;-64
2022/05/15 10:16:02;;;;;;;4.10;3.50;;;25.30;56.60;;;;;;4997841;28;20438;-64
2022/05/15 10:18:34;;;;;;;4.60;4.17;;;25.30;56.80;;;;;;4999056;28;20860;-64
2022/05/15 10:21:02;;;;;;;4.47;2.97;;;25.40;56.10;;;;;;4999926;28;20832;-64
2022/05/15 10:23:35;;;;;;;5.40;3.93;;;25.50;55.70;;;;;;4998260;28;20432;-64
2022/05/15 10:26:09;;;;;;;4.47;3.80;;;25.60;55.40;;;;;;5000314;28;20440;-64
2022/05/15 10:28:51;;;;;;;4.60;3.27;;;25.60;55.30;;;;;;4999821;28;20460;-64
2022/05/15 10:31:25;;;;;;;5.53;3.57;;;25.60;55.10;;;;;;4998562;28;20853;-64
2022/05/15 10:33:57;;;;;;;4.20;3.50;;;25.70;55.20;;;;;;4998980;28;21121;-64
2022/05/15 10:36:37;;;;;;;4.33;2.70;;;25.80;54.90;;;;;;4996799;28;20928;-64
2022/05/15 10:39:24;;;;;;;7.80;3.00;;;25.80;55.00;;;;;;4999527;28;20489;-64
2022/05/15 10:42:20;;;;;;;4.33;2.97;;;25.80;54.80;;;;;;4998280;28;20451;-64
2022/05/15 10:45:00;;;;;;;3.30;2.60;;;26.00;54.50;;;;;;4996682;28;20539;-64
2022/05/15 10:47:34;;;;;;;6.43;3.53;;;26.00;54.60;;;;;;4997061;28;20918;-64
2022/05/15 10:50:24;;;;;;;4.37;2.70;;;26.10;54.30;;;;;;4996717;28;20456;-64
2022/05/15 10:57:21;;;;;;;7.83;3.13;;;26.30;54.30;;;;;;4993699;28;20464;-64
2022/05/15 10:59:21;;;;;;;3.30;2.70;;;26.30;53.10;;;;;;4996170;28;20534;-64
2022/05/15 11:02:00;;;;;;;5.00;3.50;;;26.60;52.80;;;;;;4993286;28;20451;-64
2022/05/15 11:04:42;;;;;;;5.53;3.10;;;26.70;53.00;;;;;;4995679;28;20562;-64
2022/05/15 11:07:19;;;;;;;3.83;3.43;;;26.80;52.80;;;;;;4997378;28;20417;-64
2022/05/15 11:09:59;;;;;;;4.10;3.20;;;26.90;52.40;;;;;;4999921;28;20443;-64
2022/05/15 11:12:44;;;;;;;4.50;2.90;;;26.90;51.80;;;;;;4999252;28;20710;-63
2022/05/15 11:15:46;;;;;;;5.03;2.97;;;27.10;52.20;;;;;;4997784;28;20432;-64
2022/05/15 11:18:34;;;;;;;3.80;2.83;;;27.20;52.10;;;;;;4997094;28;20491;-64
2022/05/15 11:21:10;;;;;;;4.03;2.93;;;27.30;52.20;;;;;;4996451;28;20436;-64
2022/05/15 11:23:42;;;;;;;7.30;3.10;;;27.60;51.80;;;;;;4996182;28;20432;-64
2022/05/15 11:26:15;;;;;;;4.40;3.20;;;27.70;50.90;;;;;;4995207;28;20890;-64
2022/05/15 11:28:47;;;;;;;2.83;2.53;;;27.80;51.40;;;;;;4999105;28;20471;-64
2022/05/15 11:31:17;;;;;;;4.50;2.53;;;27.90;51.00;;;;;;4997163;28;20468;-63
2022/05/15 11:33:56;;;;;;;3.33;3.03;;;28.00;50.70;;;;;;4996572;28;20436;-64
2022/05/15 11:36:22;;;;;;;3.60;2.90;;;28.20;51.50;;;;;;4999021;28;20428;-64
2022/05/15 11:39:13;;;;;;;3.83;2.97;;;28.40;51.20;;;;;;4996898;28;20419;-64
2022/05/15 11:42:09;;;;;;;5.93;2.97;;;28.70;50.80;;;;;;4995103;28;20254;-64
2022/05/15 11:44:52;;;;;;;3.33;2.93;;;29.00;50.20;;;;;;4997083;28;20433;-64
2022/05/15 11:47:25;;;;;;;5.47;3.93;;;29.30;49.10;;;;;;4996841;28;20448;-64
2022/05/15 11:50:27;;;;;;;4.53;3.03;;;29.40;48.90;;;;;;4995352;28;20628;-64
2022/05/15 11:52:53;;;;;;;3.23;2.70;;;29.80;48.40;;;;;;4994677;28;20470;-64
2022/05/15 11:55:32;;;;;;;4.07;3.30;;;30.10;47.90;;;;;;4997814;28;20514;-64
2022/05/15 11:58:18;;;;;;;6.67;3.40;;;30.70;47.50;;;;;;4997624;28;20509;-64
2022/05/15 12:01:04;;;;;;;2.83;2.63;;;31.60;46.40;;;;;;4992925;28;20786;-64
2022/05/15 12:03:39;;;;;;;2.77;2.57;;;33.20;45.60;;;;;;4996736;28;20419;-64
2022/05/15 12:06:07;;;;;;;12.20;2.97;;;35.30;43.50;;;;;;4996041;28;20475;-65
2022/05/15 12:08:37;;;;;;;3.20;2.63;;;37.40;41.00;;;;;;4996730;28;20962;-65
2022/05/15 12:11:18;;;;;;;3.27;2.97;;;39.00;38.60;;;;;;4995468;28;20481;-65
2022/05/15 12:13:46;;;;;;;4.23;3.43;;;40.60;36.60;;;;;;4994804;28;20490;-65
2022/05/15 12:16:25;;;;;;;2.60;2.40;;;42.00;34.90;;;;;;4994433;28;20440;-65
2022/05/15 12:19:02;;;;;;;2.77;2.57;;;42.80;33.80;;;;;;4992731;28;20456;-65
2022/05/15 12:21:37;;;;;;;3.17;2.67;;;44.10;32.10;;;;;;4994940;28;20431;-65
2022/05/15 12:27:11;;;;;;;3.53;3.13;;;45.30;29.60;;;;;;4996020;28;20469;-65
2022/05/15 12:29:49;;;;;;;3.13;2.70;;;45.50;29.40;;;;;;4995803;28;20996;-65
2022/05/15 12:32:28;;;;;;;3.70;2.60;;;45.00;28.90;;;;;;4996811;28;20768;-65
2022/05/15 12:34:54;;;;;;;5.37;3.00;;;44.70;29.30;;;;;;4995660;28;20430;-65
2022/05/15 12:37:30;;;;;;;3.70;3.00;;;44.70;29.20;;;;;;4996699;28;20485;-65
2022/05/15 12:39:59;;;;;;;3.60;2.70;;;45.20;29.20;;;;;;4995341;28;20423;-65
2022/05/15 12:42:38;;;;;;;4.60;2.60;;;44.80;28.80;;;;;;4997733;28;20447;-65
2022/05/15 12:45:12;;;;;;;3.83;2.47;;;45.90;28.50;;;;;;4995669;28;20827;-65
2022/05/15 12:47:40;;;;;;;3.10;2.80;;;46.40;27.80;;;;;;4995799;28;20470;-65
2022/05/15 12:50:20;;;;;;;4.60;2.57;;;47.00;27.60;;;;;;4992803;28;20415;-65
2022/05/15 12:52:55;;;;;;;3.40;3.10;;;47.50;27.00;;;;;;4997077;28;20550;-65
2022/05/15 12:55:25;;;;;;;4.75;2.67;;;47.90;26.80;;;;;;4993430;28;20265;-65
2022/05/15 12:57:54;;;;;;;3.72;2.80;;;48.30;26.30;;;;;;4994719;28;20280;-65
2022/05/15 13:00:28;;;;;;;3.45;2.70;;;48.40;26.20;;;;;;4998253;28;20693;-65
2022/05/15 13:03:00;;;;;;;3.30;2.63;;;48.60;26.20;;;;;;5000785;28;20224;-65
2022/05/15 13:05:56;;;;;;;2.78;2.55;;;48.40;26.20;;;;;;4994415;28;20220;-65
2022/05/15 13:08:23;;;;;;;2.90;2.70;;;48.10;26.40;;;;;;4995234;28;20396;-65
2022/05/15 13:11:00;;;;;;;3.47;2.60;;;48.00;26.40;;;;;;4997569;28;20181;-65
2022/05/15 13:13:34;;;;;;;5.50;3.22;;;47.30;26.70;;;;;;4999621;28;20192;-66
2022/05/15 13:16:00;;;;;;;3.30;3.00;;;46.80;26.40;;;;;;5018229;28;20191;-65
2022/05/15 13:18:28;;;;;;;3.43;2.47;;;46.60;26.60;;;;;;4999568;28;20212;-65
2022/05/15 13:21:01;;;;;;;2.93;2.53;;;45.90;27.00;;;;;;4999371;28;20442;-65
2022/05/15 13:23:33;;;;;;;3.00;2.80;;;45.90;27.10;;;;;;4998081;28;20906;-66